logo
App data

Alien Shooter

Your mission is simple: clear the base at all costs. You will be provided with explosives to help you gain access to the teleports from where thousands of pitiless creatures pour.
Store | Hub | SteamDB | Site
Developer: Sigma Team Inc. Publisher: Sigma Team Inc.
Genre: Action, Indie, RPG
Languages: English, Russian
Tags: Action (160), Shooter (154), Aliens (151), RPG (148), Indie (145), Top-Down Shooter (136), Top-Down (132), Isometric (130), Singleplayer (125), Action RPG (122), Gore (119), Looter Shooter (116), Sci-fi (113), Atmospheric (109), Horror (104), Blood (97), Arcade (87), Rogue-like (74), Arena Shooter (69), Beat 'em up (67)
Category: Single-player, Steam Achievements, Steam Trading Cards, Steam Cloud, Steam Leaderboards
Release date: May 27, 2009
Price: $4.99
Old userscore: 92% Owners: 200,000 .. 500,000
Followers: 2,701
Peak concurrent players yesterday: 52
YouTube stats: 23,280 views and 162 comments for top 50 videos uploaded last week, 22 new videos uploaded yesterday.
Playtime total: 05:22 (average) 05:51 (median)

Steam Spy is still in beta, so expect major bugs.

Owners data:

Access restricted.

This feature is only available to users with special access rights. Sorry.

If you want to proceed, you need to register or log in first and then back Steam Spy on Patreon. Look for Indie or Pro pledge.

Don't forget to use the same email as on Steam Spy!

If you've recently backed Steam Spy on Patreon, please note, that it might take around 15 minutes for your access rights to sync. In most cases you'll need to re-login on Steam Spy too.

Audience in 2 weeks:

Access restricted.

This feature is only available to users with special access rights. Sorry.

If you want to proceed, you need to register or log in first and then back Steam Spy on Patreon. Look for Indie or Pro pledge.

Don't forget to use the same email as on Steam Spy!

If you've recently backed Steam Spy on Patreon, please note, that it might take around 15 minutes for your access rights to sync. In most cases you'll need to re-login on Steam Spy too.

Peak daily concurrent players:

CCU data courtesy of SteamDB. Used with permission.

Hourly concurrent players:

Daily Twitch stats:

Hourly Twitch stats:

Followers over time

Access restricted.

This feature is only available to users with special access rights. Sorry.

If you want to proceed, you need to register or log in first and then back Steam Spy on Patreon. Look for Indie or Pro pledge.

Don't forget to use the same email as on Steam Spy!

If you've recently backed Steam Spy on Patreon, please note, that it might take around 15 minutes for your access rights to sync. In most cases you'll need to re-login on Steam Spy too.

Views for top 50 videos on YouTube for this game:

Games similar to this one:

# Game Release date
Price
Score rank
(Userscore / Metascore)
Owners
Players
Playtime (Median)
1 Tom Clancy's Rainbow Six Vegas Dec 12, 2006 $9.99N/A (N/A/85%)100,000 .. 200,0000%00:00 (00:00)
2 Conflict: Denied Ops Feb 8, 2008 $5.99N/A (N/A/58%)100,000 .. 200,0000%00:00 (00:00)
3 Tom Clancy's Ghost Recon Desert Siege Mar 26, 2002 $4.99N/A (N/A/82%)20,000 .. 50,0000%00:00 (00:00)
4 QUAKE Mission Pack 1: Scourge of Armagon Aug 3, 2007 $2.99N/A (N/A)200,000 .. 500,0000%00:00 (00:00)
5 Tom Clancy's Rainbow Six Lockdown Feb 14, 2006 $9.99N/A (N/A/59%)50,000 .. 100,0000%00:00 (00:00)
6 Frontlines: Fuel of War Feb 29, 2008 $19.99N/A (N/A/73%)200,000 .. 500,0000%00:00 (00:00)
7 Rayman Raving Rabbids Jun 13, 2008 $9.99N/A (N/A/58%)50,000 .. 100,0000%00:00 (00:00)
8 Larva Mortus Mar 19, 2009 $4.99N/A (N/A/64%)100,000 .. 200,0000%00:00 (00:00)
9 The Ship: Single Player Nov 20, 2006 N/AN/A (N/A)200,000 .. 500,0000%00:00 (00:00)
10 Damnation May 22, 2009 $9.99N/A (N/A/41%)50,000 .. 100,0000%00:00 (00:00)
11 Alpha Prime Nov 7, 2007 $4.99N/A (N/A/59%)200,000 .. 500,0000%00:00 (00:00)
12 Unreal 2: The Awakening Mar 17, 2008 $14.99N/A (N/A/75%)200,000 .. 500,0000%00:00 (00:00)
13 Painkiller Overdose Oct 30, 2007 $4.99N/A (N/A/65%)100,000 .. 200,0000%00:00 (00:00)
14 Prince of Persia: Warrior Within Nov 21, 2008 $9.99N/A (N/A/83%)200,000 .. 500,0000%00:00 (00:00)
15 Judge Dredd: Dredd vs. Death Mar 26, 2009 $7.99N/A (N/A/55%)50,000 .. 100,0000%00:00 (00:00)
16 Prince of Persia: The Two Thrones Nov 21, 2008 $9.99N/A (N/A/85%)200,000 .. 500,0000%00:00 (00:00)
17 Project: Snowblind Mar 29, 2007 $5.99N/A (N/A/76%)100,000 .. 200,0000%00:00 (00:00)
18 STAR WARS SHADOWS OF THE EMPIRE Sep 17, 1997 $5.99N/A (N/A)20,000 .. 50,0000%00:00 (00:00)
19 Zenodyne R May 29, 2016 $1.99N/A (N/A)0 .. 20,0000%00:00 (00:00)
20 PLANETS OF WAR Jun 30, 2017 $1.99N/A (N/A)20,000 .. 50,0000%00:00 (00:00)
21 Versus: Battle of the Gladiator Aug 26, 2016 N/AN/A (N/A)100,000 .. 200,0000%00:00 (00:00)
22 Yomawari: Night Alone Oct 25, 2016 $3.99N/A (N/A)50,000 .. 100,0000%00:00 (00:00)
23 Glass Wing Jun 24, 2015 FreeN/A (N/A)20,000 .. 50,0000%00:00 (00:00)
24 Deformers Apr 20, 2017 N/AN/A (N/A)20,000 .. 50,0000%00:00 (00:00)
25 Zanzarah: The Hidden Portal Aug 20, 2015 $0.79N/A (N/A)100,000 .. 200,0000%00:00 (00:00)
26 Scrap Garden - The Day Before Oct 7, 2016 FreeN/A (N/A)100,000 .. 200,0000%00:00 (00:00)
27 Umihara Kawase Shun Nov 24, 2015 $3.59N/A (N/A)0 .. 20,0000%00:00 (00:00)
28 THOTH Oct 7, 2016 $0.99N/A (N/A)50,000 .. 100,0000%00:00 (00:00)
29 Mighty Gunvolt Sep 29, 2015 $0.99N/A (N/A)20,000 .. 50,0000%00:00 (00:00)
30 Unbox: Newbie's Adventure Sep 5, 2016 $3.99N/A (N/A/68%)50,000 .. 100,0000%00:00 (00:00)
31 Mytheon Jul 13, 2010 $4.79N/A (N/A)0 .. 20,0000%00:00 (00:00)
32 Deus Ex: Breach Jan 24, 2017 FreeN/A (N/A)50,000 .. 100,0000%00:00 (00:00)
33 Fossil Echo Jul 8, 2016 $9.99N/A (N/A/61%)20,000 .. 50,0000%00:00 (00:00)
34 AquaNox Apr 20, 2010 $4.99N/A (N/A/67%)100,000 .. 200,0000%00:00 (00:00)
35 Painkiller Redemption Feb 25, 2011 $4.99N/A (N/A/43%)200,000 .. 500,0000%00:00 (00:00)
36 AquaNox 2: Revelation Apr 20, 2010 $4.99N/A (N/A/59%)100,000 .. 200,0000%00:00 (00:00)
37 Xotic Sep 16, 2011 $9.99N/A (N/A/67%)50,000 .. 100,0000%00:00 (00:00)
38 Chaser Jul 16, 2010 $4.99N/A (N/A/66%)100,000 .. 200,0000%00:00 (00:00)
39 Zombie Shooter May 27, 2009 $4.99N/A (N/A)100,000 .. 200,0000%00:00 (00:00)
40 DogFighter Jun 14, 2010 $0.99N/A (N/A)200,000 .. 500,0000%00:00 (00:00)
41 Zombie Shooter 2 Nov 18, 2009 $9.99N/A (N/A)100,000 .. 200,0000%00:00 (00:00)
42 Wasteland Angel Sep 1, 2011 $9.99N/A (N/A)20,000 .. 50,0000%00:00 (00:00)
43 SEGA Mega Drive and Genesis Classics Jun 1, 2010 N/AN/A (N/A)1,000,000 .. 2,000,0000.98%00:11 (00:10)
44 Plain Sight Apr 5, 2010 $4.99N/A (N/A/76%)50,000 .. 100,0000%00:00 (00:00)
45 Foreign Legion: Buckets of Blood Aug 4, 2009 $3.99N/A (N/A)100,000 .. 200,0000%00:00 (00:00)
46 NyxQuest: Kindred Spirits Sep 27, 2010 $2.99N/A (N/A)20,000 .. 50,0000%00:00 (00:00)
47 MDK Sep 17, 2009 $9.99N/A (N/A)20,000 .. 50,0000%00:00 (00:00)
48 The First Templar - Steam Special Edition May 12, 2011 $9.99N/A (N/A/57%)100,000 .. 200,0000%00:00 (00:00)
49 Painkiller: Resurrection Oct 27, 2009 $9.99N/A (N/A/38%)100,000 .. 200,0000%00:00 (00:00)
50 Who's That Flying?! Jan 31, 2011 $1.49N/A (N/A/76%)20,000 .. 50,0000%00:00 (00:00)
51 Global Ops: Commando Libya Oct 26, 2011 $4.99N/A (N/A/37%)50,000 .. 100,0000%00:00 (00:00)
52 Kung Fu Strike - The Warrior's Rise Jul 24, 2012 $9.99N/A (N/A)100,000 .. 200,0000%00:00 (00:00)
53 Choplifter HD Jan 11, 2012 N/AN/A (N/A/65%)50,000 .. 100,0000%00:00 (00:00)
54 Intrusion 2 Sep 11, 2012 $9.99N/A (N/A/80%)200,000 .. 500,0000%00:00 (00:00)
55 Scary Girl Apr 9, 2012 $6.99N/A (N/A)0 .. 20,0000%00:00 (00:00)
56 Shadow Harvest: Phantom Ops Apr 5, 2011 $9.99N/A (N/A/34%)20,000 .. 50,0000%00:00 (00:00)
57 Sonic the Hedgehog 4 - Episode II May 15, 2012 $9.99N/A (N/A/54%)100,000 .. 200,0000%00:00 (00:00)
58 Capsized Apr 29, 2011 $9.99N/A (N/A/80%)200,000 .. 500,0000%00:00 (00:00)
59 Painkiller: Recurring Evil Feb 29, 2012 $1.99N/A (N/A/38%)100,000 .. 200,0000%00:00 (00:00)
60 Garshasp: The Monster Slayer May 9, 2011 $1.99N/A (N/A/49%)50,000 .. 100,0000%00:00 (00:00)
61 Noitu Love 2: Devolution Apr 23, 2012 $4.99N/A (N/A/80%)50,000 .. 100,0000%00:00 (00:00)
62 Alien Zombie Megadeath Oct 18, 2011 $4.99N/A (N/A)20,000 .. 50,0000%00:00 (00:00)
63 Sacred Citadel Apr 16, 2013 $9.99N/A (N/A/61%)500,000 .. 1,000,0000%00:00 (00:00)
64 Bunch of Heroes Sep 21, 2011 $4.99N/A (N/A)100,000 .. 200,0000%00:00 (00:00)
65 Blades of Time Apr 20, 2012 $9.99N/A (N/A/63%)200,000 .. 500,0000%00:00 (00:00)
66 Serious Sam Double D XXL Aug 30, 2011 $9.99N/A (N/A)200,000 .. 500,0000%00:00 (00:00)
67 Primal Fears Jan 8, 2013 $3.99N/A (N/A)50,000 .. 100,0000%00:00 (00:00)
68 Strike Suit Infinity Apr 30, 2013 $6.99N/A (N/A/66%)100,000 .. 200,0000%00:00 (00:00)
69 YAIBA: NINJA GAIDEN Z Mar 21, 2014 $29.99N/A (N/A/49%)20,000 .. 50,0000%00:00 (00:00)
70 The Apogee Throwback Pack Jul 1, 2013 $9.99N/A (N/A)200,000 .. 500,0000%00:00 (00:00)
71 Tiny Barbarian DX Dec 3, 2013 $29.99N/A (N/A)20,000 .. 50,0000%00:00 (00:00)
72 Guncraft Aug 9, 2013 $14.99N/A (N/A/73%)50,000 .. 100,0000%00:00 (00:00)
73 Karateka Dec 3, 2012 $3.99N/A (N/A/48%)50,000 .. 100,0000%00:00 (00:00)
74 Kill to Collect Apr 6, 2016 $1.99N/A (N/A/57%)20,000 .. 50,0000%00:00 (00:00)
75 iBomber Attack Nov 1, 2012 $5.99N/A (N/A)20,000 .. 50,0000%00:00 (00:00)
76 The Chaos Engine Aug 29, 2013 $9.99N/A (N/A/40%)100,000 .. 200,0000%00:00 (00:00)
77 NiGHTS Into Dreams Dec 17, 2012 $7.99N/A (N/A)200,000 .. 500,0000%00:00 (00:00)
78 Blood Omen 2: Legacy of Kain Sep 24, 2013 $6.99N/A (N/A)200,000 .. 500,0000%00:00 (00:00)
79 LocoCycle Feb 14, 2014 $9.99N/A (N/A)0 .. 20,0000%00:00 (00:00)
80 Disney Epic Mickey 2: The Power of Two Oct 6, 2014 $19.99N/A (N/A)20,000 .. 50,0000%00:00 (00:00)
81 Dragon's Lair Jun 19, 1983 $9.99N/A (N/A)50,000 .. 100,0000%00:00 (00:00)
82 Strike Vector Jan 28, 2014 N/AN/A (N/A/73%)100,000 .. 200,0000%00:00 (00:00)
83 Thunder Wolves May 15, 2013 $9.99N/A (N/A/69%)100,000 .. 200,0000%00:00 (00:00)
84 Shadow Man Oct 18, 2013 $4.99N/A (N/A)50,000 .. 100,0000%00:00 (00:00)
85 Vertical Drop Heroes HD Jul 25, 2014 $6.99N/A (N/A/70%)100,000 .. 200,0000%00:00 (00:00)
86 Elliot Quest Nov 10, 2014 $9.99N/A (N/A)20,000 .. 50,0000%00:00 (00:00)
87 Bird Assassin Aug 27, 2014 $0.99N/A (N/A)100,000 .. 200,0000%00:00 (00:00)
88 Dark Raid Jun 3, 2014 $3.99N/A (N/A)0 .. 20,0000%00:00 (00:00)
89 Raiden IV: OverKill Sep 3, 2015 $2.24N/A (N/A)50,000 .. 100,0000%00:00 (00:00)
90 Putt-Putt Saves The Zoo Jul 3, 2014 $3.49N/A (N/A)20,000 .. 50,0000%00:00 (00:00)
91 Hot Tin Roof: The Cat That Wore A Fedora Feb 20, 2015 $14.99N/A (N/A/66%)50,000 .. 100,0000%00:00 (00:00)
92 Kraven Manor Sep 26, 2014 FreeN/A (N/A/58%)100,000 .. 200,0000%00:00 (00:00)
93 Aces Wild: Manic Brawling Action! Jan 31, 2014 $9.99N/A (N/A)50,000 .. 100,0000%00:00 (00:00)
94 Chernobyl Commando Mar 8, 2013 N/AN/A (N/A)50,000 .. 100,0000%00:00 (00:00)
95 Spider: Rite of the Shrouded Moon Aug 6, 2015 $9.99N/A (N/A)20,000 .. 50,0000%00:00 (00:00)
96 Manhunter Jan 29, 2013 N/AN/A (N/A)100,000 .. 200,0000%00:00 (00:00)
97 GIGANTIC ARMY Mar 6, 2014 $2.99N/A (N/A)50,000 .. 100,0000%00:00 (00:00)
98 The Way May 20, 2016 $1.49N/A (N/A/67%)100,000 .. 200,0000%00:00 (00:00)
99 Eterium Apr 15, 2014 $4.99N/A (N/A)20,000 .. 50,0000%00:00 (00:00)
100 OCEAN CITY RACING Nov 14, 2014 $0.67N/A (N/A)50,000 .. 100,0000%00:00 (00:00)
101 Explodemon Mar 25, 2014 $0.89N/A (N/A)20,000 .. 50,0000%00:00 (00:00)
102 Grey Cubes May 15, 2015 N/AN/A (N/A)20,000 .. 50,0000%00:00 (00:00)
103 Cobalt Feb 2, 2016 $14.99N/A (N/A/69%)20,000 .. 50,0000%00:00 (00:00)
104 Kung Fury: Street Rage May 28, 2015 N/AN/A (N/A)100,000 .. 200,0000%00:00 (00:00)
105 Hocus Pocus Jun 1, 1994 $4.99N/A (N/A)0 .. 20,0000%00:00 (00:00)
106 Cruel Arena Aug 18, 2015 $0.99N/A (N/A)200,000 .. 500,0000%00:00 (00:00)
107 Stargunner Nov 19, 1996 FreeN/A (N/A)0 .. 20,0000%00:00 (00:00)
108 Down To One Jan 7, 2016 $0.99N/A (N/A)100,000 .. 200,0000%00:00 (00:00)
109 Rise of the Triad: Dark War Dec 21, 1994 $6.99N/A (N/A)0 .. 20,0000%00:00 (00:00)
110 Insanity's Blade Dec 5, 2014 $5.99N/A (N/A)20,000 .. 50,0000%00:00 (00:00)
111 Mega Man Legacy Collection Aug 24, 2015 $5.99N/A (N/A/85%)200,000 .. 500,0000%00:00 (00:00)
112 Raptor: Call of The Shadows - 2015 Edition Feb 13, 2015 $1.49N/A (N/A)50,000 .. 100,0000%00:00 (00:00)
113 Below Kryll Sep 7, 2015 $4.99N/A (N/A)0 .. 20,0000%00:00 (00:00)
114 TEMBO THE BADASS ELEPHANT Jul 21, 2015 $3.74N/A (N/A)20,000 .. 50,0000%00:00 (00:00)
115 METAL SLUG 2 Apr 14, 2016 $3.49N/A (N/A)100,000 .. 200,0000%00:00 (00:00)
116 Supercharged Robot VULKAISER Jun 4, 2015 $2.49N/A (N/A)20,000 .. 50,0000%00:00 (00:00)
117 SHOCK TROOPERS May 18, 2016 $3.99N/A (N/A)20,000 .. 50,0000%00:00 (00:00)
118 Rad Rodgers: World One Dec 1, 2016 $3.99N/A (N/A/72%)0 .. 20,0000%00:00 (00:00)
119 Bionic Commando: Rearmed Jul 28, 2009 $9.99N/A (N/A/86%)200,000 .. 500,0000%00:00 (00:00)
120 Iron Grip: Warlord Dec 5, 2008 N/AN/A (N/A/59%)100,000 .. 200,0000%00:00 (00:00)
121 Alien Breed: Impact Jun 3, 2010 $9.99N/A (N/A/64%)200,000 .. 500,0000%00:00 (00:00)
122 Alien Shooter: Revisited May 27, 2009 $4.99N/A (N/A)200,000 .. 500,0000%00:00 (00:00)
123 Alien Breed 2: Assault Sep 22, 2010 $9.99N/A (N/A/63%)200,000 .. 500,0000%00:00 (00:00)
124 Legendary Dec 1, 2008 $1.99N/A (N/A/50%)200,000 .. 500,0000%00:00 (00:00)
125 Drug Wars Mar 17, 2009 $4.99N/A (N/A/35%)0 .. 20,0000%00:00 (00:00)
126 Rocket Knight May 11, 2010 $14.99N/A (N/A/63%)0 .. 20,0000%00:00 (00:00)
127 Blacklight: Tango Down Jul 14, 2010 N/AN/A (N/A/65%)50,000 .. 100,0000%00:00 (00:00)
128 Prince of Persia Dec 10, 2008 $9.99N/A (N/A/82%)200,000 .. 500,0000%00:00 (00:00)
129 Twin Sector Sep 16, 2009 $4.99N/A (N/A)50,000 .. 100,0000%00:00 (00:00)
130 Watchmen: The End is Nigh Mar 4, 2009 $4.99N/A (N/A/61%)20,000 .. 50,0000%00:00 (00:00)
131 Booster Trooper Apr 23, 2010 $1.99N/A (N/A)50,000 .. 100,0000%00:00 (00:00)
132 Watchmen: The End is Nigh Part 2 Jul 29, 2009 $4.99N/A (N/A/44%)20,000 .. 50,0000%00:00 (00:00)
133 Dead Horde Jul 27, 2011 $5.99N/A (N/A)50,000 .. 100,0000%00:00 (00:00)
134 Bionic Commando Jul 28, 2009 $9.99N/A (N/A/69%)200,000 .. 500,0000%00:00 (00:00)
135 Sam & Max 301: The Penal Zone N/AN/A (N/A)0 .. 20,0000%00:00 (00:00)

Geography of active players over time, share:

Access restricted.

This feature is only available to users with special access rights. Sorry.

If you want to proceed, you need to register or log in first and then back Steam Spy on Patreon. Look for Indie or Pro pledge.

Don't forget to use the same email as on Steam Spy!

If you've recently backed Steam Spy on Patreon, please note, that it might take around 15 minutes for your access rights to sync. In most cases you'll need to re-login on Steam Spy too.

Tags over time:

Access restricted.

This feature is only available to users with special access rights. Sorry.

If you want to proceed, you need to register or log in first and then back Steam Spy on Patreon. Look for Indie or Pro pledge.

Don't forget to use the same email as on Steam Spy!

If you've recently backed Steam Spy on Patreon, please note, that it might take around 15 minutes for your access rights to sync. In most cases you'll need to re-login on Steam Spy too.

Owners of this game also own:

Access restricted.

This feature is only available to users with special access rights. Sorry.

If you want to proceed, you need to register or log in first and then back Steam Spy on Patreon. Look for Indie or Pro pledge.

Don't forget to use the same email as on Steam Spy!

If you've recently backed Steam Spy on Patreon, please note, that it might take around 15 minutes for your access rights to sync. In most cases you'll need to re-login on Steam Spy too.

Playtime distribution:

Access restricted.

This feature is only available to users with special access rights. Sorry.

If you want to proceed, you need to register or log in first and then back Steam Spy on Patreon. Look for Indie or Pro pledge.

Don't forget to use the same email as on Steam Spy!

If you've recently backed Steam Spy on Patreon, please note, that it might take around 15 minutes for your access rights to sync. In most cases you'll need to re-login on Steam Spy too.

Playtime (2 weeks):

Access restricted.

This feature is only available to users with special access rights. Sorry.

If you want to proceed, you need to register or log in first and then back Steam Spy on Patreon. Look for Indie or Pro pledge.

Don't forget to use the same email as on Steam Spy!

If you've recently backed Steam Spy on Patreon, please note, that it might take around 15 minutes for your access rights to sync. In most cases you'll need to re-login on Steam Spy too.

User reviews:

Login required.

Please register or log in to see this information.